Terminal Aerodrome Forecast
Issued by NWS Riverton, WY

Home | Current Version | Previous Version | Text Only | Print | Product List | Glossary On
Versions: 1 2 3 4 5 6 7 8 9 10 11 12 13 14 15 16 17 18 19 20 21
000
FTUS45 KRIW 260500
TAFRIW
TAF
KRIW 260535Z 2606/2706 07015KT P6SM -RA SCT015 OVC030
     FM261000 36011KT 5SM -RA BR SCT005 OVC015
      TEMPO 2611/2615 3SM RA BR BKN005
     FM261900 36014G20KT P6SM -SHRA SCT010 OVC020
     FM270000 02008KT P6SM VCSH OVC030=

USA.gov is the U.S. government's official web portal to all federal, state and local government web resources and services.